sensor_id;sensor_type;location;lat;lon;timestamp;pressure;altitude;pressure_sealevel;temperature;humidity
69836;BME280;57132;51.972;4.450;2023-02-19T00:01:33;101770.75;;;8.17;100.00
69836;BME280;57132;51.972;4.450;2023-02-19T00:04:00;101772.47;;;8.18;100.00
69836;BME280;57132;51.972;4.450;2023-02-19T00:06:28;101775.09;;;8.20;100.00
69836;BME280;57132;51.972;4.450;2023-02-19T00:08:53;101778.66;;;8.19;100.00
69836;BME280;57132;51.972;4.450;2023-02-19T00:11:21;101772.47;;;8.18;100.00
69836;BME280;57132;51.972;4.450;2023-02-19T00:13:49;101784.91;;;8.18;100.00
69836;BME280;57132;51.972;4.450;2023-02-19T00:16:23;101771.53;;;8.19;100.00
69836;BME280;57132;51.972;4.450;2023-02-19T00:18:50;101781.19;;;8.22;100.00
69836;BME280;57132;51.972;4.450;2023-02-19T00:21:16;101777.59;;;8.23;100.00
69836;BME280;57132;51.972;4.450;2023-02-19T00:23:42;101766.03;;;8.24;100.00
69836;BME280;57132;51.972;4.450;2023-02-19T00:26:10;101780.19;;;8.24;100.00
69836;BME280;57132;51.972;4.450;2023-02-19T00:28:37;101777.44;;;8.26;100.00
69836;BME280;57132;51.972;4.450;2023-02-19T00:31:04;101782.84;;;8.24;100.00
69836;BME280;57132;51.972;4.450;2023-02-19T00:33:30;101781.81;;;8.27;100.00
69836;BME280;57132;51.972;4.450;2023-02-19T00:36:00;101787.97;;;8.29;100.00
69836;BME280;57132;51.972;4.450;2023-02-19T00:38:26;101794.13;;;8.29;100.00
69836;BME280;57132;51.972;4.450;2023-02-19T00:40:51;101795.00;;;8.30;100.00
69836;BME280;57132;51.972;4.450;2023-02-19T00:43:17;101790.53;;;8.30;100.00
69836;BME280;57132;51.972;4.450;2023-02-19T00:45:42;101795.00;;;8.30;100.00
69836;BME280;57132;51.972;4.450;2023-02-19T00:48:07;101787.81;;;8.32;100.00
69836;BME280;57132;51.972;4.450;2023-02-19T00:50:33;101792.34;;;8.30;100.00
69836;BME280;57132;51.972;4.450;2023-02-19T00:52:58;101798.47;;;8.32;100.00
69836;BME280;57132;51.972;4.450;2023-02-19T00:55:23;101805.50;;;8.33;100.00
69836;BME280;57132;51.972;4.450;2023-02-19T00:57:49;101801.84;;;8.35;100.00
69836;BME280;57132;51.972;4.450;2023-02-19T01:00:14;101801.66;;;8.40;100.00
69836;BME280;57132;51.972;4.450;2023-02-19T01:02:39;101804.97;;;8.45;100.00
69836;BME280;57132;51.972;4.450;2023-02-19T01:05:05;101802.94;;;8.50;100.00
69836;BME280;57132;51.972;4.450;2023-02-19T01:07:30;101807.13;;;8.56;100.00
69836;BME280;57132;51.972;4.450;2023-02-19T01:09:56;101804.31;;;8.59;100.00
69836;BME280;57132;51.972;4.450;2023-02-19T01:12:21;101803.31;;;8.61;100.00
69836;BME280;57132;51.972;4.450;2023-02-19T01:14:48;101811.00;;;8.68;100.00
69836;BME280;57132;51.972;4.450;2023-02-19T01:17:13;101806.34;;;8.73;100.00
69836;BME280;57132;51.972;4.450;2023-02-19T01:19:42;101816.75;;;8.77;100.00
69836;BME280;57132;51.972;4.450;2023-02-19T01:22:07;101809.34;;;8.84;100.00
69836;BME280;57132;51.972;4.450;2023-02-19T01:24:32;101818.09;;;8.86;100.00
69836;BME280;57132;51.972;4.450;2023-02-19T01:26:58;101820.78;;;8.86;100.00
69836;BME280;57132;51.972;4.450;2023-02-19T01:29:23;101813.72;;;8.85;100.00
69836;BME280;57132;51.972;4.450;2023-02-19T01:31:48;101816.47;;;8.83;100.00
69836;BME280;57132;51.972;4.450;2023-02-19T01:34:14;101811.16;;;8.83;100.00
69836;BME280;57132;51.972;4.450;2023-02-19T01:36:39;101819.19;;;8.82;100.00
69836;BME280;57132;51.972;4.450;2023-02-19T01:39:05;101812.16;;;8.81;100.00
69836;BME280;57132;51.972;4.450;2023-02-19T01:41:33;101812.06;;;8.82;100.00
69836;BME280;57132;51.972;4.450;2023-02-19T01:44:05;101808.53;;;8.82;100.00
69836;BME280;57132;51.972;4.450;2023-02-19T01:46:37;101815.66;;;8.81;100.00
69836;BME280;57132;51.972;4.450;2023-02-19T01:49:13;101822.78;;;8.81;100.00
69836;BME280;57132;51.972;4.450;2023-02-19T01:51:43;101821.94;;;8.80;100.00
69836;BME280;57132;51.972;4.450;2023-02-19T01:54:12;101820.13;;;8.81;100.00
69836;BME280;57132;51.972;4.450;2023-02-19T01:56:39;101817.47;;;8.81;100.00
69836;BME280;57132;51.972;4.450;2023-02-19T01:59:07;101821.00;;;8.81;100.00
69836;BME280;57132;51.972;4.450;2023-02-19T02:01:35;101833.16;;;8.87;100.00
69836;BME280;57132;51.972;4.450;2023-02-19T02:04:08;101829.47;;;8.90;100.00
69836;BME280;57132;51.972;4.450;2023-02-19T02:06:55;101828.47;;;8.92;100.00
69836;BME280;57132;51.972;4.450;2023-02-19T02:09:24;101828.38;;;8.94;100.00
69836;BME280;57132;51.972;4.450;2023-02-19T02:12:11;101833.56;;;8.97;100.00
69836;BME280;57132;51.972;4.450;2023-02-19T02:14:39;101830.81;;;8.98;100.00
69836;BME280;57132;51.972;4.450;2023-02-19T02:17:24;101833.28;;;9.03;100.00
69836;BME280;57132;51.972;4.450;2023-02-19T02:22:37;101829.38;;;9.10;100.00
69836;BME280;57132;51.972;4.450;2023-02-19T02:27:40;101839.31;;;9.06;100.00
69836;BME280;57132;51.972;4.450;2023-02-19T02:33:59;101824.28;;;9.05;100.00
69836;BME280;57132;51.972;4.450;2023-02-19T02:36:12;101837.69;;;9.04;100.00
69836;BME280;57132;51.972;4.450;2023-02-19T02:38:41;101842.16;;;9.03;100.00
69836;BME280;57132;51.972;4.450;2023-02-19T02:41:08;101842.16;;;9.03;100.00
69836;BME280;57132;51.972;4.450;2023-02-19T02:43:34;101849.28;;;9.03;100.00
69836;BME280;57132;51.972;4.450;2023-02-19T02:45:59;101844.94;;;9.00;100.00
69836;BME280;57132;51.972;4.450;2023-02-19T02:48:30;101843.22;;;8.99;100.00
69836;BME280;57132;51.972;4.450;2023-02-19T02:53:47;101861.00;;;8.99;100.00
69836;BME280;57132;51.972;4.450;2023-02-19T02:56:33;101857.53;;;8.97;100.00
69836;BME280;57132;51.972;4.450;2023-02-19T02:59:01;101859.34;;;8.96;100.00
69836;BME280;57132;51.972;4.450;2023-02-19T03:01:36;101853.16;;;8.96;100.00
69836;BME280;57132;51.972;4.450;2023-02-19T03:04:27;101853.16;;;8.96;100.00
69836;BME280;57132;51.972;4.450;2023-02-19T03:06:59;101866.34;;;8.99;100.00
69836;BME280;57132;51.972;4.450;2023-02-19T03:09:40;101864.44;;;9.01;100.00
69836;BME280;57132;51.972;4.450;2023-02-19T03:12:13;101873.16;;;9.04;100.00
69836;BME280;57132;51.972;4.450;2023-02-19T03:15:00;101874.81;;;9.07;100.00
69836;BME280;57132;51.972;4.450;2023-02-19T03:17:51;101858.84;;;9.07;100.00
69836;BME280;57132;51.972;4.450;2023-02-19T03:20:39;101874.81;;;9.07;100.00
69836;BME280;57132;51.972;4.450;2023-02-19T03:23:16;101873.94;;;9.06;100.00
69836;BME280;57132;51.972;4.450;2023-02-19T03:25:43;101875.69;;;9.07;100.00
69836;BME280;57132;51.972;4.450;2023-02-19T03:28:29;101874.00;;;9.05;100.00
69836;BME280;57132;51.972;4.450;2023-02-19T03:31:18;101879.34;;;9.05;100.00
69836;BME280;57132;51.972;4.450;2023-02-19T03:33:48;101881.16;;;9.04;100.00
69836;BME280;57132;51.972;4.450;2023-02-19T03:36:15;101887.41;;;9.03;100.00
69836;BME280;57132;51.972;4.450;2023-02-19T03:39:03;101889.34;;;9.00;100.00
69836;BME280;57132;51.972;4.450;2023-02-19T03:41:36;101893.88;;;8.98;100.00
69836;BME280;57132;51.972;4.450;2023-02-19T03:44:15;101896.63;;;8.96;100.00
69836;BME280;57132;51.972;4.450;2023-02-19T03:46:52;101895.81;;;8.94;100.00
69836;BME280;57132;51.972;4.450;2023-02-19T03:49:33;101914.63;;;8.91;100.00
69836;BME280;57132;51.972;4.450;2023-02-19T03:52:13;101905.97;;;8.86;100.00
69836;BME280;57132;51.972;4.450;2023-02-19T03:54:46;101914.16;;;8.81;100.00
69836;BME280;57132;51.972;4.450;2023-02-19T03:57:48;101916.47;;;8.70;100.00
69836;BME280;57132;51.972;4.450;2023-02-19T04:00:26;101922.13;;;8.62;100.00
69836;BME280;57132;51.972;4.450;2023-02-19T04:03:05;101927.75;;;8.56;100.00
69836;BME280;57132;51.972;4.450;2023-02-19T04:05:38;101918.31;;;8.49;100.00
69836;BME280;57132;51.972;4.450;2023-02-19T04:08:12;101924.78;;;8.44;100.00
69836;BME280;57132;51.972;4.450;2023-02-19T04:10:40;101909.97;;;8.36;100.00
69836;BME280;57132;51.972;4.450;2023-02-19T04:13:14;101918.09;;;8.33;100.00
69836;BME280;57132;51.972;4.450;2023-02-19T04:15:43;101928.72;;;8.33;100.00
69836;BME280;57132;51.972;4.450;2023-02-19T04:18:23;101925.41;;;8.28;100.00
69836;BME280;57132;51.972;4.450;2023-02-19T04:20:51;101935.31;;;8.25;100.00
69836;BME280;57132;51.972;4.450;2023-02-19T04:23:21;101939.81;;;8.23;100.00
69836;BME280;57132;51.972;4.450;2023-02-19T04:25:51;101952.25;;;8.22;100.00
69836;BME280;57132;51.972;4.450;2023-02-19T04:28:18;101953.28;;;8.20;100.00
69836;BME280;57132;51.972;4.450;2023-02-19T04:30:44;101949.81;;;8.18;100.00
69836;BME280;57132;51.972;4.450;2023-02-19T04:33:11;101953.31;;;8.18;100.00
69836;BME280;57132;51.972;4.450;2023-02-19T04:35:36;101956.94;;;8.17;100.00
69836;BME280;57132;51.972;4.450;2023-02-19T04:38:02;101966.50;;;8.21;100.00
69836;BME280;57132;51.972;4.450;2023-02-19T04:40:27;101961.06;;;8.24;100.00
69836;BME280;57132;51.972;4.450;2023-02-19T04:42:52;101975.13;;;8.26;100.00
69836;BME280;57132;51.972;4.450;2023-02-19T04:45:18;101975.09;;;8.28;100.00
69836;BME280;57132;51.972;4.450;2023-02-19T04:47:43;101972.34;;;8.29;100.00
69836;BME280;57132;51.972;4.450;2023-02-19T04:50:11;101981.06;;;8.33;100.00
69836;BME280;57132;51.972;4.450;2023-02-19T04:52:37;101988.13;;;8.34;100.00
69836;BME280;57132;51.972;4.450;2023-02-19T04:55:03;101995.91;;;8.38;100.00
69836;BME280;57132;51.972;4.450;2023-02-19T04:57:29;101992.34;;;8.40;100.00
69836;BME280;57132;51.972;4.450;2023-02-19T04:59:54;102004.75;;;8.39;100.00
69836;BME280;57132;51.972;4.450;2023-02-19T05:02:20;102008.31;;;8.40;100.00
69836;BME280;57132;51.972;4.450;2023-02-19T05:04:45;102015.41;;;8.39;100.00
69836;BME280;57132;51.972;4.450;2023-02-19T05:07:10;102014.53;;;8.38;100.00
69836;BME280;57132;51.972;4.450;2023-02-19T05:09:36;102015.47;;;8.37;100.00
69836;BME280;57132;51.972;4.450;2023-02-19T05:12:02;102018.19;;;8.36;100.00
69836;BME280;57132;51.972;4.450;2023-02-19T05:14:28;102018.31;;;8.33;100.00
69836;BME280;57132;51.972;4.450;2023-02-19T05:16:53;102036.06;;;8.32;100.00
69836;BME280;57132;51.972;4.450;2023-02-19T05:19:19;102038.94;;;8.28;100.00
69836;BME280;57132;51.972;4.450;2023-02-19T05:21:44;102041.84;;;8.22;100.00
69836;BME280;57132;51.972;4.450;2023-02-19T05:24:12;102048.28;;;8.16;100.00
69836;BME280;57132;51.972;4.450;2023-02-19T05:26:38;102046.69;;;8.12;100.00
69836;BME280;57132;51.972;4.450;2023-02-19T05:29:03;102047.78;;;8.06;100.00
69836;BME280;57132;51.972;4.450;2023-02-19T05:31:28;102052.31;;;8.04;100.00
69836;BME280;57132;51.972;4.450;2023-02-19T05:33:54;102051.56;;;8.01;100.00
69836;BME280;57132;51.972;4.450;2023-02-19T05:36:20;102042.84;;;7.97;100.00
69836;BME280;57132;51.972;4.450;2023-02-19T05:38:46;102041.25;;;7.93;100.00
69836;BME280;57132;51.972;4.450;2023-02-19T05:41:21;102046.69;;;7.90;100.00
69836;BME280;57132;51.972;4.450;2023-02-19T05:43:48;102042.41;;;7.86;100.00
69836;BME280;57132;51.972;4.450;2023-02-19T05:46:15;102041.56;;;7.85;100.00
69836;BME280;57132;51.972;4.450;2023-02-19T05:48:41;102045.19;;;7.83;100.00
69836;BME280;57132;51.972;4.450;2023-02-19T05:51:10;102039.97;;;7.80;100.00
69836;BME280;57132;51.972;4.450;2023-02-19T05:53:36;102038.25;;;7.79;100.00
69836;BME280;57132;51.972;4.450;2023-02-19T05:56:02;102047.16;;;7.78;100.00
69836;BME280;57132;51.972;4.450;2023-02-19T05:58:28;102046.31;;;7.77;100.00
69836;BME280;57132;51.972;4.450;2023-02-19T06:00:54;102048.09;;;7.77;100.00
69836;BME280;57132;51.972;4.450;2023-02-19T06:03:20;102053.47;;;7.75;100.00
69836;BME280;57132;51.972;4.450;2023-02-19T06:05:45;102057.06;;;7.74;100.00
69836;BME280;57132;51.972;4.450;2023-02-19T06:08:14;102062.44;;;7.73;100.00
69836;BME280;57132;51.972;4.450;2023-02-19T06:10:40;102053.59;;;7.72;100.00
69836;BME280;57132;51.972;4.450;2023-02-19T06:13:07;102062.47;;;7.71;100.00
69836;BME280;57132;51.972;4.450;2023-02-19T06:15:33;102075.72;;;7.73;100.00
69836;BME280;57132;51.972;4.450;2023-02-19T06:17:59;102072.22;;;7.72;100.00
69836;BME280;57132;51.972;4.450;2023-02-19T06:20:25;102077.56;;;7.71;100.00
69836;BME280;57132;51.972;4.450;2023-02-19T06:22:50;102079.44;;;7.69;100.00
69836;BME280;57132;51.972;4.450;2023-02-19T06:25:17;102081.22;;;7.68;100.00
69836;BME280;57132;51.972;4.450;2023-02-19T06:27:43;102083.00;;;7.68;100.00
69836;BME280;57132;51.972;4.450;2023-02-19T06:30:09;102083.94;;;7.67;100.00
69836;BME280;57132;51.972;4.450;2023-02-19T06:32:35;102080.34;;;7.68;100.00
69836;BME280;57132;51.972;4.450;2023-02-19T06:35:00;102089.25;;;7.67;100.00
69836;BME280;57132;51.972;4.450;2023-02-19T06:37:25;102095.38;;;7.69;100.00
69836;BME280;57132;51.972;4.450;2023-02-19T06:39:51;102098.94;;;7.68;100.00
69836;BME280;57132;51.972;4.450;2023-02-19T06:42:16;102098.91;;;7.69;100.00
69836;BME280;57132;51.972;4.450;2023-02-19T06:44:42;102108.59;;;7.70;100.00
69836;BME280;57132;51.972;4.450;2023-02-19T06:47:07;102103.28;;;7.70;100.00
69836;BME280;57132;51.972;4.450;2023-02-19T06:49:38;102101.56;;;7.69;100.00
69836;BME280;57132;51.972;4.450;2023-02-19T06:52:03;102099.88;;;7.67;100.00
69836;BME280;57132;51.972;4.450;2023-02-19T06:54:29;102101.66;;;7.66;100.00
69836;BME280;57132;51.972;4.450;2023-02-19T06:56:54;102105.25;;;7.65;100.00
69836;BME280;57132;51.972;4.450;2023-02-19T06:59:23;102105.25;;;7.65;100.00
69836;BME280;57132;51.972;4.450;2023-02-19T07:01:48;102106.16;;;7.64;100.00
69836;BME280;57132;51.972;4.450;2023-02-19T07:04:13;102115.03;;;7.64;100.00
69836;BME280;57132;51.972;4.450;2023-02-19T07:06:39;102121.25;;;7.63;100.00
69836;BME280;57132;51.972;4.450;2023-02-19T07:09:06;102127.41;;;7.64;100.00
69836;BME280;57132;51.972;4.450;2023-02-19T07:11:34;102127.38;;;7.66;100.00
69836;BME280;57132;51.972;4.450;2023-02-19T07:14:03;102133.56;;;7.66;100.00
69836;BME280;57132;51.972;4.450;2023-02-19T07:16:29;102135.28;;;7.67;100.00
69836;BME280;57132;51.972;4.450;2023-02-19T07:18:56;102138.81;;;7.68;100.00
69836;BME280;57132;51.972;4.450;2023-02-19T07:21:22;102145.88;;;7.69;100.00
69836;BME280;57132;51.972;4.450;2023-02-19T07:23:48;102154.72;;;7.69;100.00
69836;BME280;57132;51.972;4.450;2023-02-19T07:26:16;102154.75;;;7.68;100.00
69836;BME280;57132;51.972;4.450;2023-02-19T07:28:43;102165.38;;;7.68;100.00
69836;BME280;57132;51.972;4.450;2023-02-19T07:31:09;102176.06;;;7.66;100.00
69836;BME280;57132;51.972;4.450;2023-02-19T07:33:36;102177.88;;;7.66;100.00
69836;BME280;57132;51.972;4.450;2023-02-19T07:36:01;102184.91;;;7.67;100.00
69836;BME280;57132;51.972;4.450;2023-02-19T07:38:26;102192.84;;;7.68;100.00
69836;BME280;57132;51.972;4.450;2023-02-19T07:40:56;102195.50;;;7.68;100.00
69836;BME280;57132;51.972;4.450;2023-02-19T07:43:23;102197.22;;;7.69;100.00
69836;BME280;57132;51.972;4.450;2023-02-19T07:45:49;102193.75;;;7.67;100.00
69836;BME280;57132;51.972;4.450;2023-02-19T07:48:14;102206.16;;;7.67;100.00
69836;BME280;57132;51.972;4.450;2023-02-19T07:50:40;102212.47;;;7.64;100.00
69836;BME280;57132;51.972;4.450;2023-02-19T07:53:05;102216.13;;;7.61;100.00
69836;BME280;57132;51.972;4.450;2023-02-19T07:55:32;102217.09;;;7.59;100.00
69836;BME280;57132;51.972;4.450;2023-02-19T07:57:58;102227.66;;;7.60;100.00
69836;BME280;57132;51.972;4.450;2023-02-19T08:00:24;102233.09;;;7.57;100.00
69836;BME280;57132;51.972;4.450;2023-02-19T08:02:53;102251.59;;;7.60;100.00
69836;BME280;57132;51.972;4.450;2023-02-19T08:05:32;102238.34;;;7.59;100.00
69836;BME280;57132;51.972;4.450;2023-02-19T08:07:59;102242.69;;;7.61;100.00
69836;BME280;57132;51.972;4.450;2023-02-19T08:10:26;102247.16;;;7.59;100.00
69836;BME280;57132;51.972;4.450;2023-02-19T08:13:13;102247.16;;;7.59;100.00
69836;BME280;57132;51.972;4.450;2023-02-19T08:18:13;102254.19;;;7.62;100.00
69836;BME280;57132;51.972;4.450;2023-02-19T08:20:39;102255.97;;;7.61;100.00
69836;BME280;57132;51.972;4.450;2023-02-19T08:23:05;102264.88;;;7.60;100.00
69836;BME280;57132;51.972;4.450;2023-02-19T08:25:31;102265.59;;;7.64;100.00
69836;BME280;57132;51.972;4.450;2023-02-19T08:27:57;102254.88;;;7.67;100.00
69836;BME280;57132;51.972;4.450;2023-02-19T08:30:25;102261.81;;;7.71;100.00
69836;BME280;57132;51.972;4.450;2023-02-19T08:32:50;102259.91;;;7.75;100.00
69836;BME280;57132;51.972;4.450;2023-02-19T08:35:16;102265.22;;;7.75;100.00
69836;BME280;57132;51.972;4.450;2023-02-19T08:37:41;102265.97;;;7.78;100.00
69836;BME280;57132;51.972;4.450;2023-02-19T08:40:07;102261.44;;;7.82;100.00
69836;BME280;57132;51.972;4.450;2023-02-19T08:42:33;102265.66;;;7.87;100.00
69836;BME280;57132;51.972;4.450;2023-02-19T08:44:58;102269.06;;;7.91;100.00
69836;BME280;57132;51.972;4.450;2023-02-19T08:47:24;102272.31;;;7.99;100.00
69836;BME280;57132;51.972;4.450;2023-02-19T08:49:49;102277.34;;;8.07;100.00
69836;BME280;57132;51.972;4.450;2023-02-19T08:52:14;102272.88;;;8.07;100.00
69836;BME280;57132;51.972;4.450;2023-02-19T08:54:40;102275.50;;;8.09;100.00
69836;BME280;57132;51.972;4.450;2023-02-19T08:57:05;102269.34;;;8.07;100.00
69836;BME280;57132;51.972;4.450;2023-02-19T08:59:31;102271.03;;;8.09;100.00
69836;BME280;57132;51.972;4.450;2023-02-19T09:02:00;102262.31;;;8.06;100.00
69836;BME280;57132;51.972;4.450;2023-02-19T09:04:27;102252.59;;;8.05;100.00
69836;BME280;57132;51.972;4.450;2023-02-19T09:06:54;102252.66;;;8.03;100.00
69836;BME280;57132;51.972;4.450;2023-02-19T09:09:19;102261.38;;;8.07;100.00
69836;BME280;57132;51.972;4.450;2023-02-19T09:11:45;102267.56;;;8.07;100.00
69836;BME280;57132;51.972;4.450;2023-02-19T09:14:10;102279.97;;;8.08;100.00
69836;BME280;57132;51.972;4.450;2023-02-19T09:16:36;102286.94;;;8.11;100.00
69836;BME280;57132;51.972;4.450;2023-02-19T09:19:02;102284.25;;;8.12;100.00
69836;BME280;57132;51.972;4.450;2023-02-19T09:21:28;102288.41;;;8.20;100.00
69836;BME280;57132;51.972;4.450;2023-02-19T09:23:53;102293.47;;;8.26;100.00
69836;BME280;57132;51.972;4.450;2023-02-19T09:26:21;102309.00;;;8.38;100.00
69836;BME280;57132;51.972;4.450;2023-02-19T09:28:47;102324.69;;;8.46;100.00
69836;BME280;57132;51.972;4.450;2023-02-19T09:31:14;102319.81;;;8.57;100.00
69836;BME280;57132;51.972;4.450;2023-02-19T09:33:46;102322.56;;;8.77;100.00
69836;BME280;57132;51.972;4.450;2023-02-19T09:36:14;102331.38;;;8.79;100.00
69836;BME280;57132;51.972;4.450;2023-02-19T09:38:40;102330.88;;;8.92;100.00
69836;BME280;57132;51.972;4.450;2023-02-19T09:41:08;102338.88;;;8.92;100.00
69836;BME280;57132;51.972;4.450;2023-02-19T09:43:34;102335.09;;;8.97;100.00
69836;BME280;57132;51.972;4.450;2023-02-19T09:46:10;102345.00;;;9.16;100.00
69836;BME280;57132;51.972;4.450;2023-02-19T09:48:41;102350.78;;;9.27;100.00
69836;BME280;57132;51.972;4.450;2023-02-19T09:51:08;102360.59;;;9.25;100.00
69836;BME280;57132;51.972;4.450;2023-02-19T09:53:39;102368.16;;;9.14;100.00
69836;BME280;57132;51.972;4.450;2023-02-19T09:56:06;102372.88;;;9.07;100.00
69836;BME280;57132;51.972;4.450;2023-02-19T09:58:34;102372.63;;;8.91;100.00
69836;BME280;57132;51.972;4.450;2023-02-19T10:01:02;102381.97;;;8.79;100.00
69836;BME280;57132;51.972;4.450;2023-02-19T10:03:31;102361.41;;;8.83;100.00
69836;BME280;57132;51.972;4.450;2023-02-19T10:06:01;102384.25;;;8.89;100.00
69836;BME280;57132;51.972;4.450;2023-02-19T10:08:31;102382.88;;;8.78;100.00
69836;BME280;57132;51.972;4.450;2023-02-19T10:11:02;102385.78;;;8.72;100.00
69836;BME280;57132;51.972;4.450;2023-02-19T10:15:58;102385.94;;;8.44;100.00
69836;BME280;57132;51.972;4.450;2023-02-19T10:18:32;102389.38;;;8.48;100.00
69836;BME280;57132;51.972;4.450;2023-02-19T10:21:00;102390.56;;;8.39;100.00
69836;BME280;57132;51.972;4.450;2023-02-19T10:23:25;102401.25;;;8.37;100.00
69836;BME280;57132;51.972;4.450;2023-02-19T10:25:55;102415.69;;;8.30;100.00
69836;BME280;57132;51.972;4.450;2023-02-19T10:28:25;102410.75;;;8.20;100.00
69836;BME280;57132;51.972;4.450;2023-02-19T10:30:55;102412.94;;;8.08;100.00
69836;BME280;57132;51.972;4.450;2023-02-19T10:33:21;102409.53;;;8.03;100.00
69836;BME280;57132;51.972;4.450;2023-02-19T10:36:05;102414.84;;;8.03;100.00
69836;BME280;57132;51.972;4.450;2023-02-19T10:38:34;102415.03;;;7.99;100.00
69836;BME280;57132;51.972;4.450;2023-02-19T10:41:07;102426.50;;;8.01;100.00
69836;BME280;57132;51.972;4.450;2023-02-19T10:43:37;102421.44;;;7.93;100.00
69836;BME280;57132;51.972;4.450;2023-02-19T10:46:14;102419.97;;;7.84;100.00
69836;BME280;57132;51.972;4.450;2023-02-19T10:48:45;102428.81;;;7.85;100.00
69836;BME280;57132;51.972;4.450;2023-02-19T10:51:14;102434.28;;;7.80;100.00
69836;BME280;57132;51.972;4.450;2023-02-19T10:53:51;102426.44;;;7.76;100.00
69836;BME280;57132;51.972;4.450;2023-02-19T10:56:27;102445.09;;;7.74;100.00
69836;BME280;57132;51.972;4.450;2023-02-19T10:58:54;102435.31;;;7.76;100.00
69836;BME280;57132;51.972;4.450;2023-02-19T11:01:22;102430.84;;;7.77;100.00
69836;BME280;57132;51.972;4.450;2023-02-19T11:03:52;102430.78;;;7.78;100.00
69836;BME280;57132;51.972;4.450;2023-02-19T11:06:37;102419.97;;;7.84;100.00
69836;BME280;57132;51.972;4.450;2023-02-19T11:09:04;102425.13;;;7.89;100.00
69836;BME280;57132;51.972;4.450;2023-02-19T11:11:39;102428.16;;;8.03;100.00
69836;BME280;57132;51.972;4.450;2023-02-19T11:14:13;102425.19;;;8.12;100.00
69836;BME280;57132;51.972;4.450;2023-02-19T11:16:50;102420.19;;;8.28;100.00
69836;BME280;57132;51.972;4.450;2023-02-19T11:19:34;102419.03;;;8.37;100.00
69836;BME280;57132;51.972;4.450;2023-02-19T11:22:01;102414.47;;;8.41;100.00
69836;BME280;57132;51.972;4.450;2023-02-19T11:24:30;102418.56;;;8.49;100.00
69836;BME280;57132;51.972;4.450;2023-02-19T11:26:58;102419.50;;;8.48;100.00
69836;BME280;57132;51.972;4.450;2023-02-19T11:29:24;102422.28;;;8.45;100.00
69836;BME280;57132;51.972;4.450;2023-02-19T11:31:53;102418.91;;;8.40;100.00
69836;BME280;57132;51.972;4.450;2023-02-19T11:34:27;102421.69;;;8.37;100.00
69836;BME280;57132;51.972;4.450;2023-02-19T11:37:11;102422.78;;;8.30;100.00
69836;BME280;57132;51.972;4.450;2023-02-19T11:39:38;102420.19;;;8.28;100.00
69836;BME280;57132;51.972;4.450;2023-02-19T11:52:46;102417.63;;;8.50;100.00
69836;BME280;57132;51.972;4.450;2023-02-19T12:07:26;102431.88;;;8.24;100.00
69836;BME280;57132;51.972;4.450;2023-02-19T12:20:50;102442.53;;;8.23;100.00
69836;BME280;57132;51.972;4.450;2023-02-19T12:23:36;102437.22;;;8.23;100.00
69836;BME280;57132;51.972;4.450;2023-02-19T12:29:06;102452.31;;;8.49;100.00
69836;BME280;57132;51.972;4.450;2023-02-19T12:31:58;102449.19;;;8.61;100.00
69836;BME280;57132;51.972;4.450;2023-02-19T12:34:31;102459.16;;;8.56;100.00
69836;BME280;57132;51.972;4.450;2023-02-19T12:38:14;102453.75;;;8.57;100.00
69836;BME280;57132;51.972;4.450;2023-02-19T12:43:08;102457.66;;;8.47;100.00
69836;BME280;57132;51.972;4.450;2023-02-19T12:45:59;102467.50;;;8.45;100.00
69836;BME280;57132;51.972;4.450;2023-02-19T12:51:11;102478.50;;;8.34;100.00
69836;BME280;57132;51.972;4.450;2023-02-19T12:53:49;102482.94;;;8.34;100.00
69836;BME280;57132;51.972;4.450;2023-02-19T12:56:23;102488.13;;;8.38;100.00
69836;BME280;57132;51.972;4.450;2023-02-19T12:59:02;102503.84;;;8.20;100.00
69836;BME280;57132;51.972;4.450;2023-02-19T13:01:37;102512.63;;;7.95;100.00
69836;BME280;57132;51.972;4.450;2023-02-19T13:04:25;102523.13;;;7.72;100.00
69836;BME280;57132;51.972;4.450;2023-02-19T13:07:00;102525.28;;;7.60;100.00
69836;BME280;57132;51.972;4.450;2023-02-19T13:09:37;102523.69;;;7.55;100.00
69836;BME280;57132;51.972;4.450;2023-02-19T13:12:33;102529.84;;;7.57;100.00
69836;BME280;57132;51.972;4.450;2023-02-19T13:15:08;102529.53;;;7.66;100.00
69836;BME280;57132;51.972;4.450;2023-02-19T13:17:50;102534.22;;;7.86;100.00
69836;BME280;57132;51.972;4.450;2023-02-19T13:20:31;102525.84;;;7.98;100.00
69836;BME280;57132;51.972;4.450;2023-02-19T13:23:10;102526.59;;;8.02;100.00
69836;BME280;57132;51.972;4.450;2023-02-19T13:26:12;102529.56;;;8.19;100.00
69836;BME280;57132;51.972;4.450;2023-02-19T13:32:20;102534.34;;;8.36;100.00
69836;BME280;57132;51.972;4.450;2023-02-19T13:37:34;102540.31;;;8.43;100.00
69836;BME280;57132;51.972;4.450;2023-02-19T13:40:05;102539.44;;;8.44;100.00
69836;BME280;57132;51.972;4.450;2023-02-19T13:42:34;102545.63;;;8.44;100.00
69836;BME280;57132;51.972;4.450;2023-02-19T13:45:02;102548.09;;;8.22;100.00
69836;BME280;57132;51.972;4.450;2023-02-19T13:50:21;102560.16;;;8.06;100.00
69836;BME280;57132;51.972;4.450;2023-02-19T13:52:47;102572.66;;;8.04;100.00
69836;BME280;57132;51.972;4.450;2023-02-19T14:00:59;102574.19;;;7.83;100.00
69836;BME280;57132;51.972;4.450;2023-02-19T14:03:27;102572.00;;;7.68;100.00
69836;BME280;57132;51.972;4.450;2023-02-19T14:05:59;102587.53;;;7.52;100.00
69836;BME280;57132;51.972;4.450;2023-02-19T14:08:55;102576.63;;;7.33;100.00
69836;BME280;57132;51.972;4.450;2023-02-19T14:16:55;102593.22;;;7.08;100.00
69836;BME280;57132;51.972;4.450;2023-02-19T14:25:26;102574.75;;;7.35;100.00
69836;BME280;57132;51.972;4.450;2023-02-19T14:27:53;102579.84;;;7.43;100.00
69836;BME280;57132;51.972;4.450;2023-02-19T14:30:22;102588.53;;;7.49;100.00